createdAt,value
2023-03-27T07:46:36.322Z,4.55
2023-03-27T07:49:46.884Z,4.40
2023-03-27T07:52:57.499Z,4.43
2023-03-27T07:56:00.446Z,5.10
2023-03-27T07:59:09.441Z,6.10
2023-03-27T08:02:18.807Z,5.40
2023-03-27T08:05:22.649Z,4.82
2023-03-27T08:08:39.694Z,9.57
2023-03-27T08:11:44.381Z,4.77
2023-03-27T08:14:59.071Z,3.70
2023-03-27T08:18:05.320Z,5.30
2023-03-27T08:21:13.981Z,5.88
2023-03-27T08:24:16.765Z,3.80
2023-03-27T08:27:45.190Z,3.83
2023-03-27T08:30:50.837Z,4.72
2023-03-27T08:33:53.766Z,5.53
2023-03-27T08:37:02.246Z,4.80
2023-03-27T08:40:29.728Z,4.80
2023-03-27T08:43:51.862Z,5.07
2023-03-27T08:46:58.224Z,3.58
2023-03-27T08:50:10.573Z,3.95
2023-03-27T08:53:37.878Z,3.55
2023-03-27T08:56:45.608Z,3.27
2023-03-27T08:59:52.930Z,4.07
2023-03-27T09:03:15.844Z,3.90
2023-03-27T09:06:26.090Z,3.03
2023-03-27T09:09:47.089Z,3.42
2023-03-27T09:13:12.903Z,3.40
2023-03-27T09:16:31.513Z,3.27
2023-03-27T09:20:02.623Z,3.85
2023-03-27T09:23:28.349Z,2.92
2023-03-27T09:26:58.029Z,2.70
2023-03-27T09:30:34.649Z,3.03
2023-03-27T09:33:59.892Z,2.90
2023-03-27T09:37:02.871Z,3.35
2023-03-27T09:40:13.418Z,4.13
2023-03-27T09:43:50.215Z,3.15
2023-03-27T09:47:05.083Z,4.23
2023-03-27T09:50:32.865Z,3.50
2023-03-27T09:54:00.295Z,4.40
2023-03-27T09:57:13.272Z,3.50
2023-03-27T10:00:27.579Z,4.28
2023-03-27T10:03:40.551Z,3.63
2023-03-27T10:06:44.977Z,4.53
2023-03-27T10:10:17.629Z,4.50
2023-03-27T10:13:53.722Z,4.28
2023-03-27T10:17:00.631Z,4.63
2023-03-27T10:20:17.674Z,5.00
2023-03-27T10:23:28.402Z,4.20
2023-03-27T10:26:33.854Z,4.93
2023-03-27T10:29:38.331Z,4.25
2023-03-27T10:32:48.042Z,5.13
2023-03-27T10:36:18.332Z,3.37
2023-03-27T10:39:26.767Z,3.90
2023-03-27T10:42:48.364Z,3.15
2023-03-27T10:45:53.893Z,4.22
2023-03-27T10:49:25.659Z,3.97
2023-03-27T10:52:43.763Z,4.33
2023-03-27T10:56:00.752Z,4.40
2023-03-27T10:59:12.388Z,3.55
2023-03-27T11:02:42.374Z,3.60
2023-03-27T11:05:47.362Z,3.95
2023-03-27T11:09:25.905Z,5.27
2023-03-27T11:12:36.469Z,4.60
2023-03-27T11:15:54.182Z,4.43
2023-03-27T11:19:43.827Z,4.25
2023-03-27T11:23:12.018Z,6.13
2023-03-27T11:26:49.130Z,4.43
2023-03-27T11:30:08.377Z,4.70
2023-03-27T11:33:29.661Z,5.50
2023-03-27T11:37:06.202Z,5.25
2023-03-27T11:40:30.001Z,5.40
2023-03-27T11:43:41.517Z,5.27
2023-03-27T11:47:19.776Z,4.60
2023-03-27T11:51:02.605Z,5.10
2023-03-27T11:54:50.097Z,4.28
2023-03-27T11:58:15.969Z,4.47
2023-03-27T12:01:41.764Z,4.70
2023-03-27T12:04:55.801Z,4.33
2023-03-27T12:08:59.297Z,5.00
2023-03-27T12:12:30.917Z,5.10
2023-03-27T12:16:06.610Z,3.58
2023-03-27T12:19:41.932Z,2.10
2023-03-27T12:23:57.363Z,2.20
2023-03-27T12:28:22.992Z,2.15
2023-03-27T12:32:08.703Z,3.30
2023-03-27T12:35:23.496Z,2.72
2023-03-27T12:38:36.350Z,1.53
2023-03-27T12:41:43.491Z,1.33
2023-03-27T12:45:25.460Z,11.63
2023-03-27T12:48:35.470Z,3.75
2023-03-27T12:51:43.808Z,1.50
2023-03-27T12:55:11.052Z,1.83
2023-03-27T12:58:35.299Z,1.20
2023-03-27T13:02:26.448Z,1.33
2023-03-27T13:06:02.309Z,1.58
2023-03-27T13:09:18.110Z,1.20
2023-03-27T13:12:33.609Z,1.43
2023-03-27T13:16:02.834Z,1.47
2023-03-27T13:19:46.081Z,1.13
2023-03-27T13:23:06.518Z,1.63
2023-03-27T13:26:24.063Z,2.13
2023-03-27T13:29:31.641Z,1.13
2023-03-27T13:32:41.410Z,1.50
2023-03-27T13:36:24.101Z,1.20
2023-03-27T13:39:39.519Z,1.35
2023-03-27T13:42:44.909Z,1.20
2023-03-27T13:45:54.641Z,1.30
2023-03-27T13:49:15.857Z,1.90
2023-03-27T13:53:15.942Z,2.08
2023-03-27T13:56:46.038Z,1.98
2023-03-27T14:00:18.192Z,2.38
2023-03-27T14:03:39.855Z,3.50
2023-03-27T14:07:21.380Z,2.83
2023-03-27T14:11:29.743Z,1.90
2023-03-27T14:14:58.007Z,3.42
2023-03-27T14:18:30.809Z,2.33
2023-03-27T14:21:56.370Z,3.07
2023-03-27T14:25:07.738Z,3.03
2023-03-27T14:28:32.699Z,2.80
2023-03-27T14:31:39.493Z,2.75
2023-03-27T14:35:04.769Z,3.30
2023-03-27T14:38:28.418Z,2.70
2023-03-27T14:41:32.077Z,2.13
2023-03-27T14:44:39.752Z,2.70
2023-03-27T14:48:04.761Z,2.30
2023-03-27T14:51:20.635Z,2.85
2023-03-27T14:54:39.306Z,2.87
2023-03-27T14:57:55.270Z,4.43
2023-03-27T15:01:02.955Z,2.22
2023-03-27T15:04:10.090Z,2.70
2023-03-27T15:07:19.762Z,3.72
2023-03-27T15:10:33.137Z,2.47
2023-03-27T15:14:04.486Z,3.73
2023-03-27T15:17:15.290Z,3.28
2023-03-27T15:20:20.245Z,3.63
2023-03-27T15:23:43.791Z,2.58
2023-03-27T15:26:49.790Z,2.53
2023-03-27T15:30:08.133Z,2.93
2023-03-27T15:33:22.081Z,3.05
2023-03-27T15:36:27.935Z,2.95
2023-03-27T15:39:32.639Z,2.22
2023-03-27T15:42:45.915Z,2.50
2023-03-27T15:46:12.139Z,2.07
2023-03-27T15:49:38.896Z,1.63
2023-03-27T15:52:48.688Z,1.88
2023-03-27T15:55:55.666Z,2.00
2023-03-27T15:59:02.774Z,1.83
2023-03-27T16:02:13.947Z,1.70
2023-03-27T16:05:18.283Z,1.55
2023-03-27T16:08:35.013Z,1.85
2023-03-27T16:11:48.446Z,2.92
2023-03-27T16:14:54.229Z,2.53
2023-03-27T16:18:22.690Z,1.90
2023-03-27T16:21:26.994Z,2.60
2023-03-27T16:24:29.560Z,2.35
2023-03-27T16:27:35.684Z,2.78
2023-03-27T16:30:41.126Z,2.90
2023-03-27T16:33:45.406Z,1.90
2023-03-27T16:36:48.100Z,2.70
2023-03-27T16:39:51.316Z,2.10
2023-03-27T16:42:56.936Z,2.60
2023-03-27T16:45:59.839Z,2.93
2023-03-27T16:49:02.580Z,2.73
2023-03-27T16:52:05.891Z,2.30
2023-03-27T16:55:09.029Z,2.03
2023-03-27T16:58:11.859Z,2.70
2023-03-27T17:01:14.597Z,2.10
2023-03-27T17:04:17.429Z,1.90
2023-03-27T17:07:20.051Z,2.50
2023-03-27T17:10:28.639Z,2.25
2023-03-27T17:13:31.877Z,2.47
2023-03-27T17:16:38.500Z,1.83
2023-03-27T17:19:41.232Z,2.13
2023-03-27T17:22:48.209Z,2.35
2023-03-27T17:25:59.341Z,1.40
2023-03-27T17:29:05.339Z,2.00
2023-03-27T17:32:08.926Z,1.90
2023-03-27T17:35:11.750Z,2.00
2023-03-27T17:38:15.020Z,2.20
2023-03-27T17:41:18.043Z,1.80
2023-03-27T17:44:21.160Z,2.17
2023-03-27T17:47:25.037Z,2.60
2023-03-27T17:50:27.656Z,3.47
2023-03-27T17:53:32.104Z,2.60
2023-03-27T17:56:34.801Z,2.80
2023-03-27T17:59:38.526Z,3.42
2023-03-27T18:02:41.476Z,2.23
2023-03-27T18:05:44.239Z,2.33
2023-03-27T18:08:47.414Z,2.33
2023-03-27T18:11:50.173Z,2.70
2023-03-27T18:14:52.914Z,1.88
2023-03-27T18:17:59.073Z,2.53
2023-03-27T18:21:01.921Z,1.87
2023-03-27T18:24:05.109Z,2.50
2023-03-27T18:27:07.815Z,2.60
2023-03-27T18:30:15.371Z,2.28
2023-03-27T18:33:19.161Z,2.10
2023-03-27T18:36:22.279Z,2.30
2023-03-27T18:39:31.543Z,3.40
2023-03-27T18:42:35.547Z,3.20
2023-03-27T18:45:38.306Z,1.63
2023-03-27T18:48:41.819Z,2.33
2023-03-27T18:51:47.164Z,2.53
2023-03-27T18:54:49.963Z,2.25
2023-03-27T18:57:52.615Z,2.33
2023-03-27T19:00:56.965Z,2.33
2023-03-27T19:04:00.467Z,1.77
2023-03-27T19:07:03.199Z,1.70
2023-03-27T19:10:06.609Z,1.65
2023-03-27T19:13:12.969Z,2.00
2023-03-27T19:16:36.108Z,2.28
2023-03-27T19:19:57.510Z,2.07
2023-03-27T19:23:10.385Z,1.73
2023-03-27T19:26:17.622Z,1.65
2023-03-27T19:29:28.669Z,2.05
2023-03-27T19:32:34.340Z,1.50
2023-03-27T19:35:43.525Z,1.50
2023-03-27T19:38:59.452Z,1.80
2023-03-27T19:42:03.167Z,1.50
2023-03-27T19:45:07.026Z,1.80
2023-03-27T19:48:10.315Z,2.10
2023-03-27T19:51:13.221Z,2.10
2023-03-27T19:54:25.843Z,1.20
2023-03-27T19:57:28.617Z,1.52
2023-03-27T20:00:32.261Z,1.52
2023-03-27T20:03:38.666Z,1.65
2023-03-27T20:06:41.654Z,1.77
2023-03-27T20:09:44.382Z,1.63
2023-03-27T20:12:49.544Z,1.17
2023-03-27T20:15:53.044Z,1.75
2023-03-27T20:19:06.138Z,1.75
2023-03-27T20:22:13.743Z,1.40
2023-03-27T20:25:21.734Z,1.20
2023-03-27T20:28:24.690Z,1.45
2023-03-27T20:31:27.356Z,1.48
2023-03-27T20:34:34.816Z,1.10
2023-03-27T20:37:43.619Z,1.33
2023-03-27T20:40:54.035Z,1.30
2023-03-27T20:44:02.936Z,1.55
2023-03-27T20:47:11.285Z,1.45
2023-03-27T20:50:23.841Z,1.00
2023-03-27T20:53:31.697Z,1.73
2023-03-27T20:56:41.458Z,1.23
2023-03-27T20:59:46.215Z,1.05
2023-03-27T21:02:50.116Z,1.38
2023-03-27T21:05:56.041Z,1.55
2023-03-27T21:09:01.543Z,1.47
2023-03-27T21:12:04.465Z,1.47
2023-03-27T21:15:07.667Z,1.00
2023-03-27T21:18:12.329Z,1.30
2023-03-27T21:21:14.859Z,1.88
2023-03-27T21:24:17.599Z,1.40
2023-03-27T21:27:23.118Z,1.00
2023-03-27T21:30:46.572Z,1.35
2023-03-27T21:33:50.642Z,1.42
2023-03-27T21:36:55.742Z,1.25
2023-03-27T21:39:58.983Z,1.47
2023-03-27T21:43:01.611Z,1.43
2023-03-27T21:46:04.494Z,1.17
2023-03-27T21:49:10.052Z,0.98
2023-03-27T21:52:15.391Z,0.98
2023-03-27T21:55:18.083Z,1.73
2023-03-27T21:58:21.948Z,1.30
2023-03-27T22:01:27.590Z,0.95
2023-03-27T22:04:31.095Z,1.73
2023-03-27T22:07:34.142Z,1.27
2023-03-27T22:10:36.850Z,1.30
2023-03-27T22:13:39.650Z,1.20
2023-03-27T22:16:43.506Z,1.38
2023-03-27T22:19:46.225Z,1.27
2023-03-27T22:22:51.596Z,1.20
2023-03-27T22:25:55.501Z,1.40
2023-03-27T22:29:01.355Z,1.23
2023-03-27T22:32:04.086Z,1.00
2023-03-27T22:35:06.755Z,1.20
2023-03-27T22:38:09.265Z,1.30
2023-03-27T22:41:12.699Z,1.50
2023-03-27T22:44:18.329Z,1.30
2023-03-27T22:47:22.636Z,1.30
2023-03-27T22:50:25.352Z,1.17
2023-03-27T22:53:28.127Z,0.90
2023-03-27T22:56:30.843Z,1.20
2023-03-27T22:59:33.485Z,1.10
2023-03-27T23:02:36.085Z,2.00
2023-03-27T23:05:42.968Z,1.45
2023-03-27T23:08:48.593Z,1.35
2023-03-27T23:11:51.191Z,1.40
2023-03-27T23:14:53.786Z,1.17
2023-03-27T23:17:59.185Z,1.10
2023-03-27T23:21:04.045Z,1.05
2023-03-27T23:24:06.817Z,1.08
2023-03-27T23:27:12.280Z,1.77
2023-03-27T23:30:14.942Z,1.90
2023-03-27T23:33:17.458Z,1.20
2023-03-27T23:36:22.408Z,1.13
2023-03-27T23:39:25.111Z,1.63
2023-03-27T23:42:28.542Z,1.43
2023-03-27T23:45:31.307Z,1.20
2023-03-27T23:48:37.023Z,1.70
2023-03-27T23:51:39.531Z,1.25
2023-03-27T23:54:44.688Z,1.33
2023-03-27T23:57:47.421Z,1.77
